Terminal Aerodrome Forecast
Issued by NWS Portland, OR

Home | Current Version | Previous Version | Text Only | Print | Product List | Glossary On
Versions: 1 2 3 4 5 6 7 8 9 10 11 12 13 14 15 16 17 18 19 20 21 22 23 24
000
FTUS46 KPQR 301140
TAFPDX
TAF
KPDX 301140Z 3012/3112 18006KT P6SM BKN022 BKN035
     FM301700 20004KT P6SM SCT025 BKN040
     FM310000 32007KT P6SM BKN050
     FM311000 32006KT P6SM OVC040=

USA.gov is the U.S. government's official web portal to all federal, state and local government web resources and services.